createdAt,value
2022-09-14T06:32:44.699Z,15.10
2022-09-14T06:35:12.520Z,15.20
2022-09-14T06:37:39.323Z,15.20
2022-09-14T06:40:06.502Z,15.30
2022-09-14T06:42:33.108Z,15.40
2022-09-14T06:44:59.686Z,15.30
2022-09-14T06:47:30.988Z,15.40
2022-09-14T06:49:57.761Z,15.30
2022-09-14T06:52:24.529Z,15.40
2022-09-14T06:54:51.185Z,15.50
2022-09-14T06:57:17.768Z,15.50
2022-09-14T06:59:44.702Z,15.50
2022-09-14T07:02:14.027Z,15.50
2022-09-14T07:04:40.699Z,15.40
2022-09-14T07:07:07.291Z,15.40
2022-09-14T07:09:34.155Z,15.50
2022-09-14T07:12:00.882Z,15.50
2022-09-14T07:14:31.597Z,15.50
2022-09-14T07:16:58.924Z,15.50
2022-09-14T07:19:25.499Z,15.50
2022-09-14T07:21:53.840Z,15.50
2022-09-14T07:24:20.615Z,15.60
2022-09-14T07:26:47.250Z,15.60
2022-09-14T07:29:17.188Z,15.50
2022-09-14T07:31:49.286Z,15.50
2022-09-14T07:34:16.729Z,15.50
2022-09-14T07:36:44.058Z,15.50
2022-09-14T07:39:13.446Z,15.60
2022-09-14T07:41:40.755Z,15.60
2022-09-14T07:44:08.818Z,15.60
2022-09-14T07:46:43.253Z,15.60
2022-09-14T07:49:10.963Z,15.60
2022-09-14T07:51:38.535Z,15.60
2022-09-14T07:54:07.114Z,15.60
2022-09-14T07:56:34.954Z,15.70
2022-09-14T07:59:30.783Z,15.70
2022-09-14T08:01:49.970Z,15.70
2022-09-14T08:04:17.037Z,15.70
2022-09-14T08:06:43.679Z,15.70
2022-09-14T08:09:10.444Z,15.70
2022-09-14T08:11:38.041Z,15.70
2022-09-14T08:14:06.799Z,15.80
2022-09-14T08:16:34.854Z,15.80
2022-09-14T08:19:04.014Z,15.80
2022-09-14T08:21:32.053Z,15.90
2022-09-14T08:24:01.364Z,15.90
2022-09-14T08:26:28.490Z,15.90
2022-09-14T08:28:56.356Z,15.80
2022-09-14T08:31:27.386Z,15.90
2022-09-14T08:34:04.842Z,16.00
2022-09-14T08:36:34.940Z,16.00
2022-09-14T08:39:02.008Z,16.00
2022-09-14T08:41:28.678Z,16.00
2022-09-14T08:44:00.412Z,16.00
2022-09-14T08:46:36.390Z,16.10
2022-09-14T08:49:10.275Z,16.10
2022-09-14T08:51:37.053Z,16.10
2022-09-14T08:54:03.734Z,16.20
2022-09-14T08:56:36.552Z,16.20
2022-09-14T08:59:29.982Z,16.20
2022-09-14T09:02:40.727Z,16.30
2022-09-14T09:05:35.704Z,16.30
2022-09-14T09:08:13.779Z,16.30
2022-09-14T09:10:40.961Z,16.30
2022-09-14T09:13:14.306Z,16.40
2022-09-14T09:15:56.707Z,16.40
2022-09-14T09:18:49.126Z,16.40
2022-09-14T09:21:23.298Z,16.40
2022-09-14T09:23:50.147Z,16.40
2022-09-14T09:26:28.353Z,16.40
2022-09-14T09:29:01.692Z,16.50
2022-09-14T09:31:56.367Z,16.60
2022-09-14T09:34:28.669Z,16.60
2022-09-14T09:36:55.988Z,16.60
2022-09-14T09:39:24.597Z,16.70
2022-09-14T09:42:18.599Z,16.70
2022-09-14T09:45:00.637Z,16.90
2022-09-14T09:47:36.602Z,16.90
2022-09-14T09:50:18.722Z,16.90
2022-09-14T09:52:55.527Z,17.00
2022-09-14T09:55:26.114Z,17.00
2022-09-14T09:57:54.230Z,17.10
2022-09-14T10:00:27.039Z,17.10
2022-09-14T10:02:55.423Z,17.20
2022-09-14T10:05:22.474Z,17.20
2022-09-14T10:07:49.037Z,17.20
2022-09-14T10:10:19.063Z,17.30
2022-09-14T10:12:47.970Z,17.30
2022-09-14T10:15:27.195Z,17.20
2022-09-14T10:18:09.080Z,17.30
2022-09-14T10:20:37.978Z,17.30
2022-09-14T10:23:19.987Z,17.30
2022-09-14T10:25:49.758Z,17.20
2022-09-14T10:28:23.360Z,17.20
2022-09-14T10:31:06.138Z,17.10
2022-09-14T10:33:33.059Z,17.10
2022-09-14T10:36:17.777Z,17.10
2022-09-14T10:38:46.801Z,17.10
2022-09-14T10:41:26.152Z,17.20
2022-09-14T10:44:22.609Z,17.30
2022-09-14T10:47:15.652Z,17.30
2022-09-14T10:49:51.178Z,17.30
2022-09-14T10:52:33.721Z,17.30
2022-09-14T10:55:31.769Z,17.30
2022-09-14T10:58:28.556Z,17.30
2022-09-14T11:01:02.787Z,17.40
2022-09-14T11:03:53.002Z,17.50
2022-09-14T11:06:41.644Z,17.50
2022-09-14T11:09:38.231Z,17.60
2022-09-14T11:12:10.930Z,17.70
2022-09-14T11:15:04.116Z,17.70
2022-09-14T11:17:48.263Z,17.80
2022-09-14T11:20:22.454Z,17.80
2022-09-14T11:22:57.814Z,17.80
2022-09-14T11:25:33.417Z,17.80
2022-09-14T11:28:05.726Z,17.80
2022-09-14T11:30:44.058Z,17.90
2022-09-14T11:33:33.330Z,17.90
2022-09-14T11:36:06.435Z,17.90
2022-09-14T11:38:39.774Z,17.90
2022-09-14T11:41:24.716Z,18.00
2022-09-14T11:44:03.616Z,18.10
2022-09-14T11:46:32.347Z,18.00
2022-09-14T11:49:11.764Z,18.10
2022-09-14T11:51:52.409Z,18.10
2022-09-14T11:54:21.298Z,18.10
2022-09-14T11:56:58.735Z,18.20
2022-09-14T11:59:50.812Z,18.20
2022-09-14T12:02:23.781Z,18.20
2022-09-14T12:05:09.365Z,18.20
2022-09-14T12:07:47.870Z,18.20
2022-09-14T12:10:14.540Z,18.20
2022-09-14T12:12:49.853Z,18.30
2022-09-14T12:15:21.373Z,18.20
2022-09-14T12:17:48.670Z,18.30
2022-09-14T12:20:29.331Z,18.40
2022-09-14T12:23:17.728Z,18.40
2022-09-14T12:25:57.538Z,18.50
2022-09-14T12:28:48.852Z,18.60
2022-09-14T12:31:31.933Z,18.70
2022-09-14T12:34:15.922Z,18.50
2022-09-14T12:36:42.690Z,18.60
2022-09-14T12:39:26.968Z,18.90
2022-09-14T12:41:53.555Z,19.30
2022-09-14T12:44:43.261Z,19.40
2022-09-14T12:47:25.608Z,19.30
2022-09-14T12:49:54.053Z,19.20
2022-09-14T12:52:42.093Z,19.20
2022-09-14T12:55:20.764Z,19.30
2022-09-14T12:58:09.367Z,19.30
2022-09-14T13:01:10.784Z,19.30
2022-09-14T13:03:55.652Z,19.40
2022-09-14T13:06:24.486Z,19.40
2022-09-14T13:08:58.078Z,19.50
2022-09-14T13:11:31.433Z,19.50
2022-09-14T13:14:00.315Z,19.50
2022-09-14T13:16:44.605Z,19.60
2022-09-14T13:19:22.029Z,19.80
2022-09-14T13:21:51.121Z,20.00
2022-09-14T13:24:24.846Z,20.00
2022-09-14T13:26:52.788Z,20.00
2022-09-14T13:29:19.504Z,20.00
2022-09-14T13:31:46.767Z,20.10
2022-09-14T13:34:33.444Z,20.20
2022-09-14T13:37:00.472Z,20.30
2022-09-14T13:39:33.613Z,20.30
2022-09-14T13:42:00.581Z,20.90
2022-09-14T13:44:32.627Z,21.30
2022-09-14T13:47:02.940Z,21.10
2022-09-14T13:49:30.193Z,21.00
2022-09-14T13:52:22.014Z,21.20
2022-09-14T13:55:08.021Z,21.10
2022-09-14T13:57:35.095Z,21.30
2022-09-14T14:00:21.367Z,21.10
2022-09-14T14:02:51.318Z,21.20
2022-09-14T14:05:44.142Z,21.40
2022-09-14T14:08:28.173Z,21.80
2022-09-14T14:10:55.486Z,21.70
2022-09-14T14:13:31.605Z,22.30
2022-09-14T14:16:16.749Z,22.20
2022-09-14T14:18:50.273Z,22.10
2022-09-14T14:21:29.442Z,22.00
2022-09-14T14:24:17.793Z,22.40
2022-09-14T14:26:49.930Z,22.40
2022-09-14T14:29:17.607Z,22.20
2022-09-14T14:31:44.790Z,22.30
2022-09-14T14:34:22.558Z,21.90
2022-09-14T14:36:50.285Z,21.70
2022-09-14T14:39:18.824Z,21.50
2022-09-14T14:41:46.298Z,21.40
2022-09-14T14:44:25.067Z,21.30
2022-09-14T14:46:51.778Z,21.20
2022-09-14T14:49:20.681Z,21.40
2022-09-14T14:51:48.180Z,21.30
2022-09-14T14:54:17.920Z,21.50
2022-09-14T14:56:46.566Z,21.70
2022-09-14T14:59:22.389Z,22.30
2022-09-14T15:01:50.994Z,22.20
2022-09-14T15:04:18.365Z,22.20
2022-09-14T15:06:46.856Z,22.00
2022-09-14T15:09:16.933Z,22.10
2022-09-14T15:11:44.000Z,22.20
2022-09-14T15:14:18.858Z,22.10
2022-09-14T15:16:45.880Z,21.90
2022-09-14T15:19:13.158Z,21.50
2022-09-14T15:21:41.510Z,21.80
2022-09-14T15:24:09.586Z,21.40
2022-09-14T15:26:37.049Z,21.30
2022-09-14T15:29:04.686Z,21.40
2022-09-14T15:31:31.416Z,21.40
2022-09-14T15:33:59.514Z,21.30
2022-09-14T15:36:50.290Z,21.30
2022-09-14T15:39:22.121Z,21.30
2022-09-14T15:41:49.456Z,21.20
2022-09-14T15:44:16.623Z,21.20
2022-09-14T15:46:44.609Z,21.10
2022-09-14T15:49:20.616Z,21.10
2022-09-14T15:51:50.434Z,21.00
2022-09-14T15:54:18.209Z,20.90
2022-09-14T15:56:53.271Z,20.90
2022-09-14T15:59:20.710Z,20.90
2022-09-14T16:01:47.799Z,20.80
2022-09-14T16:04:14.842Z,20.80
2022-09-14T16:06:41.896Z,20.80
2022-09-14T16:09:10.396Z,20.80
2022-09-14T16:11:38.019Z,20.80
2022-09-14T16:14:05.971Z,20.80
2022-09-14T16:16:34.178Z,20.70
2022-09-14T16:19:09.676Z,20.60
2022-09-14T16:21:36.585Z,20.70
2022-09-14T16:24:05.997Z,20.70
2022-09-14T16:26:36.061Z,20.70
2022-09-14T16:29:04.281Z,20.70
2022-09-14T16:31:34.172Z,20.80
2022-09-14T16:34:04.570Z,20.80
2022-09-14T16:36:34.655Z,20.80
2022-09-14T16:39:04.179Z,20.70
2022-09-14T16:41:31.359Z,20.70
2022-09-14T16:43:59.837Z,20.60
2022-09-14T16:46:28.223Z,20.60
2022-09-14T16:48:55.580Z,20.50
2022-09-14T16:51:26.127Z,20.40
2022-09-14T16:53:53.731Z,20.40
2022-09-14T16:56:23.062Z,20.40
2022-09-14T16:58:52.020Z,20.40
2022-09-14T17:01:22.147Z,20.20
2022-09-14T17:03:50.717Z,20.20
2022-09-14T17:06:29.072Z,20.20
2022-09-14T17:08:59.474Z,20.10
2022-09-14T17:11:28.051Z,20.10
2022-09-14T17:13:55.444Z,20.00
2022-09-14T17:16:23.918Z,19.90
2022-09-14T17:18:53.007Z,19.90
2022-09-14T17:21:25.826Z,19.90
2022-09-14T17:23:52.661Z,19.80
2022-09-14T17:26:20.897Z,19.60
2022-09-14T17:28:49.655Z,19.50
2022-09-14T17:31:20.044Z,19.40
2022-09-14T17:33:47.403Z,19.40
2022-09-14T17:36:15.711Z,19.30
2022-09-14T17:38:43.778Z,19.20
2022-09-14T17:41:16.596Z,19.10
2022-09-14T17:43:43.505Z,19.00
2022-09-14T17:46:13.986Z,18.90
2022-09-14T17:48:42.298Z,18.90
2022-09-14T17:51:17.384Z,18.80
2022-09-14T17:53:45.754Z,18.80
2022-09-14T17:56:14.188Z,18.80
2022-09-14T17:58:42.166Z,18.80
2022-09-14T18:01:26.929Z,18.70
2022-09-14T18:03:56.503Z,18.70
2022-09-14T18:06:26.382Z,18.70
2022-09-14T18:08:55.718Z,18.70
2022-09-14T18:11:22.816Z,18.70
2022-09-14T18:13:50.505Z,18.70
2022-09-14T18:16:19.449Z,18.60
2022-09-14T18:18:49.613Z,18.60
2022-09-14T18:21:18.508Z,18.50
2022-09-14T18:23:49.842Z,18.50
2022-09-14T18:26:16.857Z,18.50
2022-09-14T18:28:44.661Z,18.40
2022-09-14T18:31:14.344Z,18.40
2022-09-14T18:33:47.211Z,18.30
2022-09-14T18:36:15.303Z,18.30
2022-09-14T18:38:43.329Z,18.20
2022-09-14T18:41:11.685Z,18.10
2022-09-14T18:43:45.977Z,18.10
2022-09-14T18:46:13.705Z,17.90
2022-09-14T18:48:43.494Z,18.00
2022-09-14T18:51:11.517Z,17.90
2022-09-14T18:53:38.645Z,17.80
2022-09-14T18:56:09.860Z,17.90
2022-09-14T18:58:38.530Z,17.80
2022-09-14T19:01:06.078Z,17.70
2022-09-14T19:03:33.536Z,17.60
2022-09-14T19:06:11.004Z,17.60
2022-09-14T19:08:37.581Z,17.60
2022-09-14T19:11:18.679Z,17.60
2022-09-14T19:13:46.326Z,17.50
2022-09-14T19:16:16.582Z,17.50
2022-09-14T19:18:44.563Z,17.40
2022-09-14T19:21:15.177Z,17.40
2022-09-14T19:23:42.971Z,17.30
2022-09-14T19:26:12.749Z,17.20
2022-09-14T19:28:39.438Z,17.20
2022-09-14T19:31:07.784Z,17.10
2022-09-14T19:33:35.144Z,17.10
2022-09-14T19:36:04.267Z,17.00
2022-09-14T19:38:30.855Z,17.00
2022-09-14T19:40:57.824Z,16.90
2022-09-14T19:43:24.537Z,16.80
2022-09-14T19:45:52.961Z,16.80
2022-09-14T19:48:19.778Z,16.80
2022-09-14T19:50:46.354Z,16.80
2022-09-14T19:53:13.150Z,16.70
2022-09-14T19:55:39.879Z,16.70
2022-09-14T19:58:06.494Z,16.70
2022-09-14T20:00:33.438Z,16.70
2022-09-14T20:03:00.218Z,16.60
2022-09-14T20:05:26.831Z,16.60
2022-09-14T20:07:53.671Z,16.60
2022-09-14T20:10:20.907Z,16.60
2022-09-14T20:12:47.577Z,16.60
2022-09-14T20:15:14.870Z,16.50
2022-09-14T20:17:41.582Z,16.40
2022-09-14T20:20:08.572Z,16.40
2022-09-14T20:22:35.171Z,16.40
2022-09-14T20:25:01.806Z,16.30
2022-09-14T20:27:28.467Z,16.30
2022-09-14T20:29:55.129Z,16.30
2022-09-14T20:32:21.867Z,16.20
2022-09-14T20:34:48.447Z,16.10
2022-09-14T20:37:15.143Z,16.10
2022-09-14T20:39:41.832Z,16.10
2022-09-14T20:42:08.465Z,16.00
2022-09-14T20:44:35.189Z,16.00
2022-09-14T20:47:01.986Z,15.90
2022-09-14T20:49:29.036Z,15.90
2022-09-14T20:51:57.278Z,15.80
2022-09-14T20:54:23.973Z,15.70
2022-09-14T20:56:50.599Z,15.70
2022-09-14T20:59:18.587Z,15.60
2022-09-14T21:01:47.478Z,15.50
2022-09-14T21:04:17.121Z,15.60
2022-09-14T21:06:49.367Z,15.50
2022-09-14T21:09:18.121Z,15.50
2022-09-14T21:11:45.881Z,15.50
2022-09-14T21:14:14.432Z,15.50
